Time;durP1;ratioP1;P1;durP2;ratioP2;P2;SDS_P1;SDS_P2;PMS_P1;PMS_P2;Temp;Humidity;BMP_temperature;BMP_pressure;BME280_temperature;BME280_humidity;BME280_pressure;Samples;Min_cycle;Max_cycle;Signal;HPM_P1;HPM_P2
2022/06/05 00:01:49;;;;;;;;;;;21.40;98.10;;;;;;5085429;28;19930;-81
2022/06/05 00:04:30;;;;;;;;;;;21.40;98.20;;;;;;5064837;28;19928;-82
2022/06/05 00:07:03;;;;;;;;;;;21.40;98.20;;;;;;5065007;28;19939;-81
2022/06/05 00:09:34;;;;;;;;;;;21.30;98.20;;;;;;5085821;28;19924;-82
2022/06/05 00:12:05;;;;;;;;;;;21.30;98.30;;;;;;5085850;28;19924;-82
2022/06/05 00:14:32;;;;;;;;;;;21.30;98.40;;;;;;5092972;28;19946;-82
2022/06/05 00:16:59;;;;;;;;;;;21.30;98.50;;;;;;5089443;28;19970;-82
2022/06/05 00:19:27;;;;;;;;;;;21.20;98.50;;;;;;5092014;28;19970;-81
2022/06/05 00:21:54;;;;;;;;;;;21.20;98.60;;;;;;5060404;28;19931;-83
2022/06/05 00:24:21;;;;;;;;;;;21.20;98.70;;;;;;5070783;28;20429;-82
2022/06/05 00:26:51;;;;;;;;;;;21.20;98.70;;;;;;5088945;28;19978;-82
2022/06/05 00:29:34;;;;;;;;;;;21.20;98.80;;;;;;5067321;28;20392;-82
2022/06/05 00:32:05;;;;;;;;;;;21.10;98.80;;;;;;5084445;28;19925;-82
2022/06/05 00:34:33;;;;;;;;;;;21.10;98.90;;;;;;5084770;28;19944;-82
2022/06/05 00:37:05;;;;;;;;;;;21.10;98.90;;;;;;5081634;28;20382;-82
2022/06/05 00:39:37;;;;;;;;;;;21.10;98.90;;;;;;5084115;28;19924;-82
2022/06/05 00:42:05;;;;;;;;;;;21.00;99.00;;;;;;5060046;28;19932;-82
2022/06/05 00:44:34;;;;;;;;;;;21.00;99.00;;;;;;5064575;28;20296;-82
2022/06/05 00:47:02;;;;;;;;;;;21.00;99.00;;;;;;5087014;28;19924;-81
2022/06/05 00:49:32;;;;;;;;;;;21.00;99.00;;;;;;5084735;28;19950;-82
2022/06/05 00:52:01;;;;;;;;;;;21.00;99.00;;;;;;5057094;28;19939;-82
2022/06/05 00:54:28;;;;;;;;;;;20.90;98.90;;;;;;5061478;28;19931;-81
2022/06/05 00:56:55;;;;;;;;;;;20.90;99.00;;;;;;5088136;28;19965;-82
2022/06/05 00:59:22;;;;;;;;;;;20.90;99.00;;;;;;5087603;28;19930;-82
2022/06/05 01:01:50;;;;;;;;;;;20.90;99.10;;;;;;5066928;28;20394;-82
2022/06/05 01:04:17;;;;;;;;;;;20.80;99.00;;;;;;5088155;28;19931;-82
2022/06/05 01:06:44;;;;;;;;;;;20.80;99.10;;;;;;5079458;28;20305;-81
2022/06/05 01:09:12;;;;;;;;;;;20.80;99.10;;;;;;5076017;28;19982;-82
2022/06/05 01:11:47;;;;;;;;;;;20.80;99.20;;;;;;5083026;28;19924;-82
2022/06/05 01:14:19;;;;;;;;;;;20.80;99.30;;;;;;5083678;28;19924;-82
2022/06/05 01:16:51;;;;;;;;;;;20.80;99.30;;;;;;5066510;28;20473;-82
2022/06/05 01:19:24;;;;;;;;;;;20.70;99.30;;;;;;5091909;28;20015;-82
2022/06/05 01:22:08;;;;;;;;;;;20.70;99.30;;;;;;5078551;28;19982;-81
2022/06/05 01:24:44;;;;;;;;;;;20.70;99.30;;;;;;5042616;28;19928;-82
2022/06/05 01:27:14;;;;;;;;;;;20.70;99.30;;;;;;5071914;28;19936;-82
2022/06/05 01:29:45;;;;;;;;;;;20.70;99.30;;;;;;5075964;28;19924;-82
2022/06/05 01:32:14;;;;;;;;;;;20.60;99.30;;;;;;5086196;28;20014;-82
2022/06/05 01:34:43;;;;;;;;;;;20.60;99.40;;;;;;5068498;28;19924;-81
2022/06/05 01:37:13;;;;;;;;;;;20.60;99.50;;;;;;5065330;28;20386;-81
2022/06/05 01:39:44;;;;;;;;;;;20.60;99.50;;;;;;5079945;28;20023;-82
2022/06/05 01:42:13;;;;;;;;;;;20.60;99.50;;;;;;5085919;28;19931;-81
2022/06/05 01:44:43;;;;;;;;;;;20.60;99.60;;;;;;5050209;28;19973;-81
2022/06/05 01:47:13;;;;;;;;;;;20.60;99.70;;;;;;5059139;28;20318;-82
2022/06/05 01:49:41;;;;;;;;;;;20.50;99.60;;;;;;5082360;28;19924;-82
2022/06/05 01:52:10;;;;;;;;;;;20.50;99.60;;;;;;5081481;28;19924;-81
2022/06/05 01:54:40;;;;;;;;;;;20.50;99.60;;;;;;5067663;28;20270;-82
2022/06/05 01:57:09;;;;;;;;;;;20.50;99.60;;;;;;5086098;28;19927;-81
2022/06/05 01:59:39;;;;;;;;;;;20.50;99.70;;;;;;5084463;28;19924;-82
2022/06/05 02:02:09;;;;;;;;;;;20.40;99.70;;;;;;5070178;28;19933;-81
2022/06/05 02:04:38;;;;;;;;;;;20.40;99.80;;;;;;5089600;28;19943;-81
2022/06/05 02:07:08;;;;;;;;;;;20.40;99.80;;;;;;5079321;28;19935;-81
2022/06/05 02:09:36;;;;;;;;;;;20.40;99.90;;;;;;5071177;28;19955;-81
2022/06/05 02:12:04;;;;;;;;;;;20.40;99.90;;;;;;5085062;28;19928;-82
2022/06/05 02:14:31;;;;;;;;;;;20.40;99.90;;;;;;5087863;28;19925;-81
2022/06/05 02:16:59;;;;;;;;;;;20.30;99.90;;;;;;5080784;28;20405;-81
2022/06/05 02:19:28;;;;;;;;;;;20.30;99.90;;;;;;5085088;28;20023;-82
2022/06/05 02:22:00;;;;;;;;;;;20.30;99.90;;;;;;5062071;28;20372;-82
2022/06/05 02:24:27;;;;;;;;;;;20.30;99.90;;;;;;5069407;28;20393;-81
2022/06/05 02:26:54;;;;;;;;;;;20.30;99.90;;;;;;5084132;28;20331;-81
2022/06/05 02:29:21;;;;;;;;;;;20.20;99.90;;;;;;5070914;28;19928;-81
2022/06/05 02:31:53;;;;;;;;;;;20.20;99.90;;;;;;5088242;28;19947;-80
2022/06/05 02:34:26;;;;;;;;;;;20.20;99.90;;;;;;5061281;28;20437;-81
2022/06/05 02:36:59;;;;;;;;;;;20.20;99.90;;;;;;5077217;28;19928;-81
2022/06/05 02:39:32;;;;;;;;;;;20.20;99.90;;;;;;5087415;28;19932;-81
2022/06/05 02:44:52;;;;;;;;;;;20.10;99.90;;;;;;5111056;22;19931;-85
2022/06/05 02:47:22;;;;;;;;;;;20.10;99.90;;;;;;5118501;27;19995;-84
2022/06/05 02:49:53;;;;;;;;;;;20.10;99.90;;;;;;5116244;27;20062;-83
2022/06/05 02:52:22;;;;;;;;;;;20.10;99.90;;;;;;5108006;27;20371;-84
2022/06/05 02:54:52;;;;;;;;;;;20.10;99.90;;;;;;5117179;27;20011;-85
2022/06/05 02:57:20;;;;;;;;;;;20.00;99.90;;;;;;5114394;28;19924;-85
2022/06/05 02:59:46;;;;;;;;;;;20.00;99.90;;;;;;5097332;28;20038;-84
2022/06/05 03:04:58;;;;;;;;;;;20.00;99.90;;;;;;5109988;27;19928;-84
2022/06/05 03:07:26;;;;;;;;;;;20.00;99.90;;;;;;5123109;27;19924;-85
2022/06/05 03:09:53;;;;;;;;;;;20.00;99.90;;;;;;5109011;27;19938;-85
2022/06/05 03:12:20;;;;;;;;;;;19.90;99.90;;;;;;5119283;27;19935;-84
2022/06/05 03:14:48;;;;;;;;;;;;;;;;;;5094413;27;19990;-85
2022/06/05 03:17:15;;;;;;;;;;;19.90;99.90;;;;;;5114021;27;19987;-84
2022/06/05 03:19:42;;;;;;;;;;;19.80;99.90;;;;;;5111274;27;19991;-84
2022/06/05 03:22:09;;;;;;;;;;;19.90;99.90;;;;;;5115629;27;19924;-83
2022/06/05 03:24:37;;;;;;;;;;;19.80;99.90;;;;;;5118486;27;20393;-85
2022/06/05 03:27:04;;;;;;;;;;;19.80;99.90;;;;;;5119440;27;19924;-85
2022/06/05 03:29:31;;;;;;;;;;;19.80;99.90;;;;;;5117630;27;19962;-85
2022/06/05 03:31:58;;;;;;;;;;;19.80;99.90;;;;;;5116650;27;19928;-85
2022/06/05 03:34:26;;;;;;;;;;;19.80;99.90;;;;;;5112918;27;19931;-85
2022/06/05 03:36:52;;;;;;;;;;;19.80;99.90;;;;;;5104748;28;19944;-84
2022/06/05 03:39:19;;;;;;;;;;;19.70;99.90;;;;;;5118762;27;19966;-84
2022/06/05 03:41:48;;;;;;;;;;;19.70;99.90;;;;;;5118664;27;19931;-85
2022/06/05 03:44:14;;;;;;;;;;;19.70;99.90;;;;;;5104616;28;19970;-85
2022/06/05 03:46:41;;;;;;;;;;;19.70;99.90;;;;;;5112528;28;19949;-84
2022/06/05 03:49:09;;;;;;;;;;;19.70;99.90;;;;;;5108392;27;20355;-85
2022/06/05 03:51:36;;;;;;;;;;;19.70;99.90;;;;;;5110165;27;19924;-84
2022/06/05 03:54:02;;;;;;;;;;;19.70;99.90;;;;;;5122703;27;21041;-85
2022/06/05 03:56:30;;;;;;;;;;;19.60;99.90;;;;;;5096918;28;19924;-84
2022/06/05 03:58:58;;;;;;;;;;;19.60;99.90;;;;;;5110227;28;19952;-84
2022/06/05 04:01:26;;;;;;;;;;;19.70;99.90;;;;;;5116470;27;19928;-83
2022/06/05 04:03:53;;;;;;;;;;;19.60;99.90;;;;;;5122526;27;19924;-85
2022/06/05 04:06:21;;;;;;;;;;;19.60;99.90;;;;;;5115774;27;19931;-84
2022/06/05 04:08:48;;;;;;;;;;;19.60;99.90;;;;;;5110777;28;19932;-85
2022/06/05 04:11:18;;;;;;;;;;;19.60;99.90;;;;;;5117080;27;19935;-84
2022/06/05 04:13:45;;;;;;;;;;;19.60;99.90;;;;;;5108251;27;19946;-84
2022/06/05 04:16:14;;;;;;;;;;;19.50;99.90;;;;;;5093192;28;19932;-84
2022/06/05 04:18:41;;;;;;;;;;;19.50;99.90;;;;;;5121057;27;19942;-85
2022/06/05 04:21:09;;;;;;;;;;;19.50;99.90;;;;;;5119462;27;19932;-84
2022/06/05 04:23:36;;;;;;;;;;;19.50;99.90;;;;;;5111706;27;19923;-83
2022/06/05 04:26:06;;;;;;;;;;;19.50;99.90;;;;;;5104255;28;19938;-84
2022/06/05 04:28:33;;;;;;;;;;;19.50;99.90;;;;;;5114179;27;19995;-84
2022/06/05 04:31:00;;;;;;;;;;;19.40;99.90;;;;;;5114094;27;19924;-84
2022/06/05 04:33:28;;;;;;;;;;;19.40;99.90;;;;;;5093689;27;19931;-84
2022/06/05 04:35:55;;;;;;;;;;;19.40;99.90;;;;;;5093920;28;20317;-84
2022/06/05 04:38:22;;;;;;;;;;;19.40;99.90;;;;;;5098048;28;19934;-84
2022/06/05 04:40:49;;;;;;;;;;;19.30;99.90;;;;;;5107280;28;19954;-85
2022/06/05 04:43:16;;;;;;;;;;;19.40;99.90;;;;;;5116601;27;19924;-85
2022/06/05 04:45:43;;;;;;;;;;;19.40;99.90;;;;;;5111887;27;19924;-85
2022/06/05 04:48:10;;;;;;;;;;;19.30;99.90;;;;;;5116320;27;19928;-84
2022/06/05 04:50:39;;;;;;;;;;;19.30;99.90;;;;;;5115730;27;19928;-83
2022/06/05 04:53:06;;;;;;;;;;;19.30;99.90;;;;;;5109301;27;19923;-86
2022/06/05 04:55:33;;;;;;;;;;;19.30;99.90;;;;;;5107396;27;19924;-83
2022/06/05 04:58:00;;;;;;;;;;;19.30;99.90;;;;;;5111019;27;19924;-84
2022/06/05 05:00:27;;;;;;;;;;;19.30;99.90;;;;;;5110660;27;19962;-84
2022/06/05 05:02:54;;;;;;;;;;;19.30;99.90;;;;;;5120327;27;20010;-85
2022/06/05 05:05:20;;;;;;;;;;;19.20;99.90;;;;;;5093995;28;19924;-84
2022/06/05 05:07:49;;;;;;;;;;;19.20;99.90;;;;;;5111234;28;19924;-84
2022/06/05 05:10:16;;;;;;;;;;;19.20;99.90;;;;;;5117247;27;19924;-84
2022/06/05 05:12:43;;;;;;;;;;;19.20;99.90;;;;;;5115236;28;20202;-84
2022/06/05 05:15:10;;;;;;;;;;;19.20;99.90;;;;;;5107608;27;19928;-85
2022/06/05 05:17:37;;;;;;;;;;;19.20;99.90;;;;;;5126007;27;19923;-85
2022/06/05 05:20:05;;;;;;;;;;;19.20;99.90;;;;;;5108835;28;19959;-84
2022/06/05 05:22:37;;;;;;;;;;;19.20;99.90;;;;;;5115278;27;19924;-85
2022/06/05 05:25:07;;;;;;;;;;;19.20;99.90;;;;;;5089024;28;20424;-84
2022/06/05 05:27:34;;;;;;;;;;;19.20;99.90;;;;;;5106253;28;19962;-85
2022/06/05 05:30:02;;;;;;;;;;;19.20;99.90;;;;;;5116163;27;19923;-84
2022/06/05 05:32:29;;;;;;;;;;;19.10;99.90;;;;;;5105877;28;19924;-85
2022/06/05 05:34:55;;;;;;;;;;;19.10;99.90;;;;;;5109848;28;19932;-83
2022/06/05 05:37:22;;;;;;;;;;;19.10;99.90;;;;;;5118227;28;19928;-85
2022/06/05 05:42:35;;;;;;;;;;;19.10;99.90;;;;;;5109678;28;19962;-83
2022/06/05 05:45:02;;;;;;;;;;;19.10;99.90;;;;;;5098015;28;19924;-84
2022/06/05 05:47:30;;;;;;;;;;;19.10;99.90;;;;;;5096557;28;20282;-84
2022/06/05 05:49:58;;;;;;;;;;;19.10;99.90;;;;;;5088449;28;20018;-84
2022/06/05 05:52:25;;;;;;;;;;;19.10;99.90;;;;;;5098000;28;19946;-83
2022/06/05 05:54:52;;;;;;;;;;;19.10;99.90;;;;;;5113813;28;19935;-85
2022/06/05 05:57:19;;;;;;;;;;;19.10;99.90;;;;;;5121131;28;19984;-84
2022/06/05 05:59:48;;;;;;;;;;;19.10;99.90;;;;;;5095375;28;19954;-87
2022/06/05 06:02:18;;;;;;;;;;;19.10;99.90;;;;;;5112828;28;19947;-86
2022/06/05 06:04:46;;;;;;;;;;;19.10;99.90;;;;;;5104528;28;19924;-83
2022/06/05 06:07:13;;;;;;;;;;;19.10;99.90;;;;;;5094791;28;19932;-85
2022/06/05 06:09:40;;;;;;;;;;;19.10;99.90;;;;;;5107111;28;19932;-86
2022/06/05 06:12:07;;;;;;;;;;;19.10;99.90;;;;;;5113147;28;19932;-86
2022/06/05 06:14:34;;;;;;;;;;;19.10;99.90;;;;;;5114539;28;19924;-83
2022/06/05 06:17:03;;;;;;;;;;;19.00;99.90;;;;;;5107821;28;19925;-84
2022/06/05 06:19:30;;;;;;;;;;;19.00;99.90;;;;;;5105637;28;20030;-84
2022/06/05 06:21:57;;;;;;;;;;;19.00;99.90;;;;;;5113809;27;19928;-84
2022/06/05 06:24:24;;;;;;;;;;;19.00;99.90;;;;;;5113960;27;19927;-85
2022/06/05 06:26:51;;;;;;;;;;;19.00;99.90;;;;;;5103501;27;19928;-84
2022/06/05 06:29:18;;;;;;;;;;;19.00;99.90;;;;;;5117382;27;19938;-84
2022/06/05 06:31:45;;;;;;;;;;;19.00;99.90;;;;;;5115892;27;20018;-84
2022/06/05 06:34:13;;;;;;;;;;;18.90;99.90;;;;;;5108445;27;20389;-84
2022/06/05 06:36:40;;;;;;;;;;;18.90;99.90;;;;;;5121560;27;19923;-85
2022/06/05 06:39:07;;;;;;;;;;;18.90;99.90;;;;;;5110612;27;19947;-85
2022/06/05 06:41:34;;;;;;;;;;;18.90;99.90;;;;;;5117516;28;19931;-84
2022/06/05 06:44:03;;;;;;;;;;;18.90;99.90;;;;;;5094485;28;19924;-85
2022/06/05 06:46:30;;;;;;;;;;;18.90;99.90;;;;;;5106502;28;20382;-85
2022/06/05 06:48:57;;;;;;;;;;;18.80;99.90;;;;;;5110770;28;19954;-85
2022/06/05 06:51:25;;;;;;;;;;;18.80;99.90;;;;;;5118865;27;19923;-85
2022/06/05 06:53:52;;;;;;;;;;;18.80;99.90;;;;;;5109128;27;20309;-84
2022/06/05 06:56:20;;;;;;;;;;;18.80;99.90;;;;;;5115581;27;20010;-83
2022/06/05 06:58:47;;;;;;;;;;;18.80;99.90;;;;;;5102403;27;19977;-85
2022/06/05 07:01:14;;;;;;;;;;;18.80;99.90;;;;;;5119645;27;19939;-85
2022/06/05 07:03:41;;;;;;;;;;;18.70;99.90;;;;;;5109726;28;19928;-85
2022/06/05 07:06:10;;;;;;;;;;;18.70;99.90;;;;;;5116620;27;19924;-84
2022/06/05 07:08:38;;;;;;;;;;;18.70;99.90;;;;;;5112175;27;19928;-85
2022/06/05 07:11:06;;;;;;;;;;;18.70;99.90;;;;;;5119000;27;19930;-83
2022/06/05 07:13:36;;;;;;;;;;;18.70;99.90;;;;;;5114238;28;19973;-85
2022/06/05 07:16:03;;;;;;;;;;;18.70;99.90;;;;;;5115218;28;19928;-84
2022/06/05 07:18:30;;;;;;;;;;;18.70;99.90;;;;;;5118212;27;19931;-85
2022/06/05 07:20:57;;;;;;;;;;;18.60;99.90;;;;;;5112480;27;19923;-85
2022/06/05 07:23:23;;;;;;;;;;;18.60;99.90;;;;;;5118689;27;19931;-84
2022/06/05 07:25:52;;;;;;;;;;;18.60;99.90;;;;;;5110209;27;19935;-85
2022/06/05 07:28:20;;;;;;;;;;;18.60;99.90;;;;;;5109959;27;19938;-85
2022/06/05 07:30:47;;;;;;;;;;;18.60;99.90;;;;;;5112173;27;19928;-84
2022/06/05 07:33:14;;;;;;;;;;;18.60;99.90;;;;;;5095178;27;19950;-83
2022/06/05 07:35:42;;;;;;;;;;;18.60;99.90;;;;;;5123671;27;20338;-84
2022/06/05 07:38:09;;;;;;;;;;;18.60;99.90;;;;;;5112593;27;19969;-84
2022/06/05 07:40:38;;;;;;;;;;;18.60;99.90;;;;;;5114935;27;19924;-84
2022/06/05 07:43:09;;;;;;;;;;;18.60;99.90;;;;;;5116817;27;19931;-85
2022/06/05 07:45:36;;;;;;;;;;;18.60;99.90;;;;;;5096421;28;19924;-85
2022/06/05 07:48:03;;;;;;;;;;;18.50;99.90;;;;;;5107142;27;19946;-84
2022/06/05 07:50:30;;;;;;;;;;;18.50;99.90;;;;;;5104542;27;20253;-85
2022/06/05 07:55:42;;;;;;;;;;;18.50;99.90;;;;;;5118050;27;19931;-83
2022/06/05 07:58:10;;;;;;;;;;;18.50;99.90;;;;;;5117092;27;20289;-85
2022/06/05 08:00:37;;;;;;;;;;;18.50;99.90;;;;;;5102534;28;19932;-84
2022/06/05 08:03:04;;;;;;;;;;;18.50;99.90;;;;;;5111186;27;20468;-85
2022/06/05 08:05:31;;;;;;;;;;;18.50;99.90;;;;;;5114586;27;20313;-84
2022/06/05 08:07:58;;;;;;;;;;;18.40;99.90;;;;;;5094179;28;19930;-85
2022/06/05 08:10:25;;;;;;;;;;;18.50;99.90;;;;;;5118335;27;20317;-85
2022/06/05 08:12:52;;;;;;;;;;;18.40;99.90;;;;;;5100259;28;20014;-84
2022/06/05 08:15:20;;;;;;;;;;;18.50;99.90;;;;;;5099438;28;19924;-85
2022/06/05 08:17:47;;;;;;;;;;;18.40;99.90;;;;;;5121200;27;19969;-85
2022/06/05 08:20:14;;;;;;;;;;;18.40;99.90;;;;;;5109523;28;20111;-84
2022/06/05 08:22:41;;;;;;;;;;;18.40;99.90;;;;;;5116401;27;19946;-84
2022/06/05 08:25:08;;;;;;;;;;;18.40;99.90;;;;;;5110406;28;19930;-85
2022/06/05 08:27:35;;;;;;;;;;;18.50;99.90;;;;;;5117857;27;19977;-85
2022/06/05 08:30:02;;;;;;;;;;;18.40;99.90;;;;;;5099447;28;19963;-84
2022/06/05 08:32:31;;;;;;;;;;;18.50;99.90;;;;;;5105713;28;19924;-85
2022/06/05 08:34:58;;;;;;;;;;;18.50;99.90;;;;;;5098328;28;19931;-84
2022/06/05 08:43:25;;;;;;;;;;;18.50;99.90;;;;;;5115775;27;19931;-84
2022/06/05 08:45:58;;;;;;;;;;;18.50;99.90;;;;;;5088086;27;19924;-85
2022/06/05 08:48:29;;;;;;;;;;;18.50;99.90;;;;;;5108659;28;19924;-85
2022/06/05 08:50:57;;;;;;;;;;;18.50;99.90;;;;;;5101238;27;20172;-83
2022/06/05 08:53:33;;;;;;;;;;;18.50;99.90;;;;;;5115353;27;19928;-84
2022/06/05 08:56:00;;;;;;;;;;;18.60;99.90;;;;;;5112202;27;20042;-85
2022/06/05 08:58:30;;;;;;;;;;;18.60;99.90;;;;;;5125169;27;19924;-85
2022/06/05 09:01:00;;;;;;;;;;;18.60;99.90;;;;;;5117248;27;19927;-84
2022/06/05 09:03:31;;;;;;;;;;;18.60;99.90;;;;;;5095460;28;19950;-85
2022/06/05 09:06:02;;;;;;;;;;;18.60;99.90;;;;;;5099683;27;19938;-84
2022/06/05 09:08:31;;;;;;;;;;;18.60;99.90;;;;;;5093534;28;19928;-85
2022/06/05 09:11:00;;;;;;;;;;;18.70;99.90;;;;;;5108360;27;19932;-84
2022/06/05 09:13:30;;;;;;;;;;;18.70;99.90;;;;;;5116701;27;19924;-85
2022/06/05 09:16:00;;;;;;;;;;;18.70;99.90;;;;;;5105311;27;21431;-84
2022/06/05 09:18:35;;;;;;;;;;;18.70;99.90;;;;;;5114789;27;20431;-85
2022/06/05 09:21:06;;;;;;;;;;;18.70;99.90;;;;;;5118871;27;20372;-84
2022/06/05 09:23:35;;;;;;;;;;;18.70;99.90;;;;;;5109325;27;19924;-84
2022/06/05 09:26:05;;;;;;;;;;;18.70;99.90;;;;;;5171866;22;19931;-81
2022/06/05 09:28:44;;;;;;;;;;;18.70;99.90;;;;;;5103083;28;19924;-82
2022/06/05 09:31:24;;;;;;;;;;;18.80;99.90;;;;;;5108386;28;19974;-82
2022/06/05 09:33:52;;;;;;;;;;;18.80;99.90;;;;;;5082440;28;19928;-82
2022/06/05 09:36:22;;;;;;;;;;;18.80;99.90;;;;;;5065486;28;19946;-81
2022/06/05 09:38:52;;;;;;;;;;;18.80;99.90;;;;;;5104289;28;20015;-82
2022/06/05 09:41:29;;;;;;;;;;;18.80;99.90;;;;;;5086952;28;19932;-82
2022/06/05 09:44:14;;;;;;;;;;;18.80;99.90;;;;;;5085805;28;19930;-82
2022/06/05 09:46:54;;;;;;;;;;;18.80;99.90;;;;;;5090032;28;19931;-82
2022/06/05 09:49:23;;;;;;;;;;;18.90;99.90;;;;;;5065325;28;19977;-82
2022/06/05 09:51:52;;;;;;;;;;;18.90;99.90;;;;;;5089405;28;20347;-82
2022/06/05 09:54:23;;;;;;;;;;;18.90;99.90;;;;;;5080566;28;19927;-82
2022/06/05 09:59:49;;;;;;;;;;;18.90;99.90;;;;;;5094929;28;20424;-82
2022/06/05 10:02:17;;;;;;;;;;;18.90;99.90;;;;;;5072363;28;19924;-82
2022/06/05 10:04:44;;;;;;;;;;;18.90;99.90;;;;;;5090639;28;20007;-82
2022/06/05 10:07:17;;;;;;;;;;;19.00;99.90;;;;;;5087543;28;19989;-82
2022/06/05 10:09:45;;;;;;;;;;;19.00;99.90;;;;;;5089339;28;19967;-82
2022/06/05 10:12:19;;;;;;;;;;;19.00;99.90;;;;;;5090431;28;19924;-81
2022/06/05 10:14:50;;;;;;;;;;;19.00;99.90;;;;;;5087774;28;19924;-82
2022/06/05 10:17:35;;;;;;;;;;;19.00;99.90;;;;;;5084544;28;19924;-81
2022/06/05 10:20:16;;;;;;;;;;;19.00;99.90;;;;;;5093305;28;20254;-81
2022/06/05 10:22:48;;;;;;;;;;;19.10;99.90;;;;;;5087380;28;20312;-82
2022/06/05 10:25:19;;;;;;;;;;;19.10;99.90;;;;;;5089120;28;20023;-81
2022/06/05 10:27:50;;;;;;;;;;;19.10;99.90;;;;;;5081463;28;19963;-81
2022/06/05 10:30:18;;;;;;;;;;;19.10;99.90;;;;;;5070651;28;19924;-81
2022/06/05 10:32:48;;;;;;;;;;;19.10;99.90;;;;;;5093673;28;20292;-81
2022/06/05 10:35:17;;;;;;;;;;;19.20;99.90;;;;;;5090724;28;20404;-82
2022/06/05 10:37:48;;;;;;;;;;;19.20;99.90;;;;;;5089675;28;20438;-82
2022/06/05 10:40:19;;;;;;;;;;;19.20;99.90;;;;;;5088088;28;19931;-82
2022/06/05 10:42:52;;;;;;;;;;;19.20;99.90;;;;;;5091344;28;19924;-81
2022/06/05 10:45:35;;;;;;;;;;;19.20;99.90;;;;;;5083853;28;19930;-81
2022/06/05 10:48:07;;;;;;;;;;;19.20;99.90;;;;;;5087801;28;19924;-81
2022/06/05 10:50:36;;;;;;;;;;;19.20;99.90;;;;;;5087913;28;19927;-80
2022/06/05 10:53:07;;;;;;;;;;;19.30;99.90;;;;;;5067064;28;20891;-81
2022/06/05 10:55:41;;;;;;;;;;;19.30;99.90;;;;;;5093405;28;20351;-82
2022/06/05 10:58:14;;;;;;;;;;;19.30;99.90;;;;;;5068712;28;19924;-81
2022/06/05 11:00:56;;;;;;;;;;;19.30;99.90;;;;;;5092763;28;19953;-81
2022/06/05 11:03:28;;;;;;;;;;;19.30;99.90;;;;;;5099511;27;19932;-81
2022/06/05 11:06:04;;;;;;;;;;;19.40;99.90;;;;;;5093657;28;19924;-81
2022/06/05 11:08:40;;;;;;;;;;;19.40;99.90;;;;;;5090835;28;19936;-81
2022/06/05 11:14:01;;;;;;;;;;;19.40;99.90;;;;;;5096360;28;19928;-81
2022/06/05 11:16:30;;;;;;;;;;;19.50;99.90;;;;;;5095997;28;19931;-81
2022/06/05 11:19:03;;;;;;;;;;;19.50;99.90;;;;;;5103058;28;19936;-81
2022/06/05 11:21:30;;;;;;;;;;;19.60;99.90;;;;;;5100009;28;20568;-81
2022/06/05 11:23:59;;;;;;;;;;;19.60;99.90;;;;;;5088146;28;19982;-81
2022/06/05 11:26:31;;;;;;;;;;;19.60;99.90;;;;;;5069932;28;20689;-81
2022/06/05 11:29:03;;;;;;;;;;;19.60;99.90;;;;;;5088806;28;20021;-81
2022/06/05 11:31:39;;;;;;;;;;;19.60;99.90;;;;;;5095957;28;19923;-81
2022/06/05 11:34:14;;;;;;;;;;;19.60;99.90;;;;;;5090763;28;19946;-81
2022/06/05 11:36:44;;;;;;;;;;;19.60;99.90;;;;;;5084448;28;20401;-81
2022/06/05 11:39:18;;;;;;;;;;;19.60;99.90;;;;;;5088985;28;19985;-81
2022/06/05 11:41:48;;;;;;;;;;;19.60;99.90;;;;;;5065016;28;20019;-81
2022/06/05 11:44:33;;;;;;;;;;;19.70;99.90;;;;;;5090338;28;19930;-82
2022/06/05 11:47:03;;;;;;;;;;;19.70;99.90;;;;;;5088866;28;19924;-82
2022/06/05 11:49:37;;;;;;;;;;;19.70;99.90;;;;;;5091120;28;19955;-82
2022/06/05 11:52:08;;;;;;;;;;;19.70;99.90;;;;;;5088539;28;19924;-80
2022/06/05 11:54:41;;;;;;;;;;;19.70;99.90;;;;;;5070089;28;19924;-82
2022/06/05 11:57:13;;;;;;;;;;;19.70;99.90;;;;;;5072129;28;19932;-82
2022/06/05 11:59:44;;;;;;;;;;;19.70;99.90;;;;;;5088644;28;20069;-81
2022/06/05 12:02:29;;;;;;;;;;;19.70;99.90;;;;;;5067366;28;20359;-81
2022/06/05 12:04:58;;;;;;;;;;;19.70;99.90;;;;;;5074503;28;19932;-82
2022/06/05 12:07:26;;;;;;;;;;;19.70;99.90;;;;;;5066142;28;19932;-82
2022/06/05 12:09:55;;;;;;;;;;;19.70;99.90;;;;;;5080941;28;20062;-81
2022/06/05 12:12:24;;;;;;;;;;;19.70;99.90;;;;;;5070249;28;19932;-82
2022/06/05 12:14:54;;;;;;;;;;;19.70;99.90;;;;;;5088343;28;20386;-82
2022/06/05 12:17:24;;;;;;;;;;;19.70;99.90;;;;;;5066786;28;19931;-82
2022/06/05 12:20:00;;;;;;;;;;;19.70;99.90;;;;;;5086533;28;19985;-81
2022/06/05 12:22:30;;;;;;;;;;;19.70;99.90;;;;;;5087719;28;20499;-81
2022/06/05 12:25:02;;;;;;;;;;;19.70;99.90;;;;;;5092858;28;20636;-81
2022/06/05 12:27:41;;;;;;;;;;;19.70;99.90;;;;;;5090406;28;20459;-81
2022/06/05 12:30:15;;;;;;;;;;;19.60;99.90;;;;;;5087513;28;20023;-82
2022/06/05 12:32:46;;;;;;;;;;;19.60;99.90;;;;;;5095294;28;20578;-82
2022/06/05 12:35:15;;;;;;;;;;;19.60;99.90;;;;;;5069138;28;19934;-81
2022/06/05 12:37:45;;;;;;;;;;;19.60;99.90;;;;;;5088523;28;19931;-80
2022/06/05 12:40:18;;;;;;;;;;;19.60;99.90;;;;;;5094518;28;19928;-82
2022/06/05 12:42:48;;;;;;;;;;;19.60;99.90;;;;;;5086065;28;19924;-82
2022/06/05 12:45:20;;;;;;;;;;;19.60;99.90;;;;;;5083333;28;19931;-81
2022/06/05 12:48:04;;;;;;;;;;;19.60;99.90;;;;;;5084161;28;19977;-82
2022/06/05 12:50:37;;;;;;;;;;;19.50;99.90;;;;;;5091920;28;19928;-82
2022/06/05 12:53:09;;;;;;;;;;;19.50;99.90;;;;;;5089412;28;19928;-81
2022/06/05 12:55:39;;;;;;;;;;;19.50;99.90;;;;;;5063626;28;20381;-82
2022/06/05 12:58:11;;;;;;;;;;;19.50;99.90;;;;;;5086285;28;19928;-82
2022/06/05 13:00:46;;;;;;;;;;;19.50;99.90;;;;;;5084616;28;19978;-82
2022/06/05 13:03:23;;;;;;;;;;;19.50;99.90;;;;;;5084384;28;20401;-82
2022/06/05 13:05:52;;;;;;;;;;;19.50;99.90;;;;;;5090834;28;19931;-81
2022/06/05 13:08:24;;;;;;;;;;;19.50;99.90;;;;;;5091147;28;19925;-82
2022/06/05 13:10:56;;;;;;;;;;;19.50;99.90;;;;;;5087870;28;19924;-82
2022/06/05 13:13:30;;;;;;;;;;;19.50;99.90;;;;;;5064490;28;19932;-82
2022/06/05 13:15:59;;;;;;;;;;;19.50;99.90;;;;;;5068634;28;19928;-82
2022/06/05 13:18:32;;;;;;;;;;;19.50;99.90;;;;;;5085880;28;19950;-82
2022/06/05 13:21:20;;;;;;;;;;;19.50;99.90;;;;;;5087227;28;19924;-82
2022/06/05 13:23:55;;;;;;;;;;;19.50;99.90;;;;;;5078572;28;19966;-82
2022/06/05 13:26:29;;;;;;;;;;;19.50;99.90;;;;;;5082456;28;20412;-81
2022/06/05 13:28:58;;;;;;;;;;;19.50;99.90;;;;;;5088692;28;20397;-81
2022/06/05 13:31:32;;;;;;;;;;;19.40;99.90;;;;;;5079784;28;20392;-82
2022/06/05 13:34:04;;;;;;;;;;;19.40;99.90;;;;;;5069257;28;20416;-82
2022/06/05 13:36:35;;;;;;;;;;;19.40;99.90;;;;;;5087449;28;20389;-81
2022/06/05 13:39:05;;;;;;;;;;;19.40;99.90;;;;;;5099059;28;19931;-82
2022/06/05 13:41:37;;;;;;;;;;;19.40;99.90;;;;;;5086094;28;19978;-82
2022/06/05 13:44:15;;;;;;;;;;;19.40;99.90;;;;;;5086623;28;19931;-82
2022/06/05 13:46:44;;;;;;;;;;;19.40;99.90;;;;;;5089677;28;19928;-82
2022/06/05 13:49:25;;;;;;;;;;;19.50;99.90;;;;;;5081833;28;19924;-82
2022/06/05 13:51:56;;;;;;;;;;;19.40;99.90;;;;;;5081018;28;19946;-82
2022/06/05 13:54:29;;;;;;;;;;;19.40;99.90;;;;;;5092310;28;19931;-81
2022/06/05 13:56:59;;;;;;;;;;;19.40;99.90;;;;;;5089175;28;20487;-82
2022/06/05 13:59:28;;;;;;;;;;;19.40;99.90;;;;;;5090527;28;19943;-82
2022/06/05 14:02:05;;;;;;;;;;;19.40;99.90;;;;;;5079522;28;20015;-82
2022/06/05 14:04:33;;;;;;;;;;;19.40;99.90;;;;;;5069679;28;20030;-82
2022/06/05 14:07:02;;;;;;;;;;;19.40;99.90;;;;;;5086141;28;19924;-82
2022/06/05 14:09:36;;;;;;;;;;;19.40;99.90;;;;;;5084767;28;19931;-82
2022/06/05 14:12:05;;;;;;;;;;;19.40;99.90;;;;;;5087695;28;19939;-82
2022/06/05 14:14:36;;;;;;;;;;;19.40;99.90;;;;;;5090304;28;19969;-82
2022/06/05 14:17:04;;;;;;;;;;;19.40;99.90;;;;;;5099713;28;19977;-82
2022/06/05 14:19:34;;;;;;;;;;;19.40;99.90;;;;;;5088235;28;19924;-82
2022/06/05 14:22:02;;;;;;;;;;;19.40;99.90;;;;;;5087783;28;19924;-82
2022/06/05 14:24:30;;;;;;;;;;;19.40;99.90;;;;;;5087907;28;20016;-81
2022/06/05 14:26:58;;;;;;;;;;;19.40;99.90;;;;;;5087617;28;20341;-82
2022/06/05 14:29:28;;;;;;;;;;;19.40;99.90;;;;;;5092449;28;19923;-82
2022/06/05 14:31:56;;;;;;;;;;;19.40;99.90;;;;;;5090218;28;19924;-82
2022/06/05 14:34:25;;;;;;;;;;;19.40;99.90;;;;;;5061974;28;19924;-81
2022/06/05 14:36:54;;;;;;;;;;;19.40;99.90;;;;;;5090209;28;19931;-81
2022/06/05 14:39:24;;;;;;;;;;;19.40;99.90;;;;;;5095996;28;19924;-81
2022/06/05 14:41:57;;;;;;;;;;;19.40;99.90;;;;;;5071294;28;20394;-82
2022/06/05 14:44:27;;;;;;;;;;;19.40;99.90;;;;;;5086685;28;19928;-81
2022/06/05 14:46:58;;;;;;;;;;;19.40;99.90;;;;;;5069138;28;19924;-81
2022/06/05 14:49:29;;;;;;;;;;;19.40;99.90;;;;;;5090759;28;19967;-82
2022/06/05 14:52:12;;;;;;;;;;;19.30;99.90;;;;;;5089720;28;20424;-82
2022/06/05 15:00:16;;;;;;;;;;;19.30;99.90;;;;;;5089504;28;19999;-81
2022/06/05 15:02:47;;;;;;;;;;;19.30;99.90;;;;;;5088496;28;19950;-81